Aviation Digital Data Service (ADDS)

Output produced by METARs form (2003 UTC 21 September 2021)
found at http://aviationweather.gov/metar/data/
 
METAR text: EYKA 211950Z 29004KT 250V340 9999 -RA BKN008 OVC011 07/05 Q1019
Conditions at: EYKA (KAUNAS , LT) observed 1950 UTC 21 September 2021
Temperature: 7.0°C (45°F)
Dewpoint: 5.0°C (41°F) [RH = 87%]
Pressure (altimeter): 30.09 inches Hg (1019.0 mb)
Winds: from the WNW (290 degrees) at 5 MPH (4 knots; 2.1 m/s)
Visibility: 6 or more miles (10+ km)
Ceiling: 800 feet AGL
Clouds: broken clouds at 800 feet AGL
overcast cloud deck at 1100 feet AGL
Weather: -RA  (light rain)

METAR text: EYKA 211920Z 29004KT 250V320 9999 BKN009 OVC013 07/05 Q1019
Conditions at: EYKA (KAUNAS , LT) observed 1920 UTC 21 September 2021
Temperature: 7.0°C (45°F)
Dewpoint: 5.0°C (41°F) [RH = 87%]
Pressure (altimeter): 30.09 inches Hg (1019.0 mb)
Winds: from the WNW (290 degrees) at 5 MPH (4 knots; 2.1 m/s)
Visibility: 6 or more miles (10+ km)
Ceiling: 900 feet AGL
Clouds: broken clouds at 900 feet AGL
overcast cloud deck at 1300 feet AGL
Weather: no significant weather observed at this time

METAR text: EYKA 211850Z 30003KT 250V020 9999 -RA OVC024 07/05 Q1019
Conditions at: EYKA (KAUNAS , LT) observed 1850 UTC 21 September 2021
Temperature: 7.0°C (45°F)
Dewpoint: 5.0°C (41°F) [RH = 87%]
Pressure (altimeter): 30.09 inches Hg (1019.0 mb)
Winds: from the WNW (300 degrees) at 3 MPH (3 knots; 1.5 m/s)
Visibility: 6 or more miles (10+ km)
Ceiling: 2400 feet AGL
Clouds: overcast cloud deck at 2400 feet AGL
Weather: -RA  (light rain)

METAR text: EYKA 211820Z 30003KT 210V350 9999 -RA OVC037 07/05 Q1019
Conditions at: EYKA (KAUNAS , LT) observed 1820 UTC 21 September 2021
Temperature: 7.0°C (45°F)
Dewpoint: 5.0°C (41°F) [RH = 87%]
Pressure (altimeter): 30.09 inches Hg (1019.0 mb)
Winds: from the WNW (300 degrees) at 3 MPH (3 knots; 1.5 m/s)
Visibility: 6 or more miles (10+ km)
Ceiling: 3700 feet AGL
Clouds: overcast cloud deck at 3700 feet AGL
Weather: -RA  (light rain)

Forecast for: EYKA (KAUNAS , LT)
Text: TAF EYKA 211700Z 2118/2218 VRB05KT 9000 SCT010 OVC015
Forecast period: 1800 to 2100 UTC 21 September 2021
Forecast type: FROM: standard forecast or significant change
Winds: variable direction winds at 6 MPH (5 knots; 2.6 m/s)
Visibility: 6 miles (9 km)
Ceiling: 1500 feet AGL
Clouds: scattered clouds at 1000 feet AGL
overcast cloud deck at 1500 feet AGL
Weather: no significant weather forecast for this period
Text: TEMPO 2118/2121 5000 RA BR BKN005 OVC010
Forecast period: 1800 to 2100 UTC 21 September 2021
Forecast type: TEMPORARY: The following changes expected for less than half the time period
Visibility: 3 miles (5 km)
Ceiling: 500 feet AGL
Clouds: broken clouds at 500 feet AGL
overcast cloud deck at 1000 feet AGL
Weather: RA BR  (moderate rain, mist)
Text: BECMG 2121/2122 5000 BR OVC010
Forecast period: 2100 UTC 21 September 2021 to 0600 UTC 22 September 2021
Forecast type: BECOMING: Conditions expected to become as follows by 2200 UTC 21 September 2021
Winds: variable direction winds at 6 MPH (5 knots; 2.6 m/s)
Visibility: 3 miles (5 km)
Ceiling: 1000 feet AGL
Clouds: overcast cloud deck at 1000 feet AGL
Weather: BR  (mist)
Text: TEMPO 2122/2206 3000 RA OVC005
Forecast period: 2200 UTC 21 September 2021 to 0600 UTC 22 September 2021
Forecast type: TEMPORARY: The following changes expected for less than half the time period
Visibility: 1.86 miles (2.99 km)
Ceiling: 500 feet AGL
Clouds: overcast cloud deck at 500 feet AGL
Weather: RA  (moderate rain)
Text: BECMG 2206/2208 9000 NSW
Forecast period: 0600 to 0800 UTC 22 September 2021
Forecast type: BECOMING: Conditions expected to become as follows by 0800 UTC 22 September 2021
Winds: variable direction winds at 6 MPH (5 knots; 2.6 m/s)
Visibility: 6 miles (9 km)
Ceiling: 1000 feet AGL
Clouds: overcast cloud deck at 1000 feet AGL
Weather: NSW  (no significant weather)
Text: BECMG 2208/2210 OVC015
Forecast period: 0800 to 1800 UTC 22 September 2021
Forecast type: BECOMING: Conditions expected to become as follows by 1000 UTC 22 September 2021
Winds: variable direction winds at 6 MPH (5 knots; 2.6 m/s)
Visibility: 6 miles (9 km)
Ceiling: 1500 feet AGL
Clouds: overcast cloud deck at 1500 feet AGL
Weather: NSW  (no significant weather)